Ephrata, Washington
Current Conditions -  °F | °C
As of 8:53 PM on Wednesday 22 Oct 2014 (Local Time) from KEPH Reporting Station
Few Clouds Few Clouds  
Wind Chill: 56°   Ceiling: Unl
Heat Index: 56°   Visibility: 10mi
Dew Point: 51°   Wind: 20mph
Humidity: 84%   Direction: 170°S
Pressure: 29.64"   Gusts: 28mph
Location:  47.32°N, 119.55°W
Report Text: KEPH 230353Z AUTO 17017G24KT 10SM FEW120 13/11 A2964 RMK AO2 SLP037 T01330106
Loading
Personal Weather Stations






























Interactive Weather Map
Tropical Storm Tracking
New forecast layout! Learn more

10-Day Weather Forecast

Advertisements
Track Severe Weather on mobile